createdAt,value
2024-02-24T06:30:16.063Z,0.98
2024-02-24T06:32:42.911Z,2.35
2024-02-24T06:35:09.753Z,4.55
2024-02-24T06:37:36.690Z,1.58
2024-02-24T06:40:03.610Z,2.20
2024-02-24T06:42:30.537Z,1.92
2024-02-24T06:44:57.362Z,1.20
2024-02-24T06:47:29.140Z,3.13
2024-02-24T06:49:56.570Z,2.17
2024-02-24T06:52:23.406Z,1.73
2024-02-24T06:54:51.330Z,3.03
2024-02-24T06:57:18.232Z,1.35
2024-02-24T06:59:49.239Z,2.47
2024-02-24T07:02:16.360Z,3.10
2024-02-24T07:04:43.727Z,3.80
2024-02-24T07:07:10.718Z,1.80
2024-02-24T07:09:38.082Z,2.70
2024-02-24T07:12:05.315Z,3.00
2024-02-24T07:14:32.511Z,2.08
2024-02-24T07:16:59.306Z,3.75
2024-02-24T07:19:26.093Z,4.03
2024-02-24T07:21:52.911Z,2.45
2024-02-24T07:24:19.712Z,6.10
2024-02-24T07:26:50.488Z,3.65
2024-02-24T07:29:17.897Z,1.67
2024-02-24T07:31:44.697Z,2.85
2024-02-24T07:34:11.777Z,1.70
2024-02-24T07:36:38.643Z,1.88
2024-02-24T07:39:06.015Z,3.35
2024-02-24T07:41:32.860Z,2.17
2024-02-24T07:43:59.735Z,2.08
2024-02-24T07:46:32.671Z,2.60
2024-02-24T07:49:01.190Z,2.20
2024-02-24T07:51:29.399Z,1.05
2024-02-24T07:53:57.399Z,1.83
2024-02-24T07:56:25.862Z,3.38
2024-02-24T07:58:52.922Z,1.15
2024-02-24T08:01:19.746Z,2.95
2024-02-24T08:03:46.796Z,1.33
2024-02-24T08:06:13.632Z,1.50
2024-02-24T08:08:40.662Z,1.17
2024-02-24T08:11:08.122Z,0.95
2024-02-24T08:13:42.742Z,1.10
2024-02-24T08:16:10.538Z,1.70
2024-02-24T08:18:37.463Z,0.82
2024-02-24T08:21:08.179Z,1.27
2024-02-24T08:23:35.880Z,0.45
2024-02-24T08:26:03.283Z,1.00
2024-02-24T08:28:30.721Z,1.33
2024-02-24T08:31:00.524Z,0.90
2024-02-24T08:33:27.647Z,1.92
2024-02-24T08:35:54.813Z,1.83
2024-02-24T08:38:21.776Z,0.80
2024-02-24T08:40:48.632Z,0.70
2024-02-24T08:43:15.397Z,0.75
2024-02-24T08:45:44.946Z,0.57
2024-02-24T08:50:41.818Z,0.70
2024-02-24T08:53:08.955Z,0.45
2024-02-24T08:55:35.870Z,0.50
2024-02-24T08:58:02.654Z,0.70
2024-02-24T09:00:29.420Z,0.57
2024-02-24T09:02:56.443Z,1.20
2024-02-24T09:05:23.914Z,0.65
2024-02-24T09:07:50.769Z,2.25
2024-02-24T09:10:17.631Z,1.23
2024-02-24T09:12:44.401Z,2.85
2024-02-24T09:15:11.317Z,0.88
2024-02-24T09:17:38.239Z,0.73
2024-02-24T09:20:05.548Z,0.80
2024-02-24T09:22:32.380Z,1.45
2024-02-24T09:24:59.142Z,0.75
2024-02-24T09:27:25.901Z,0.45
2024-02-24T09:29:52.833Z,1.70
2024-02-24T09:32:19.835Z,0.55
2024-02-24T09:34:46.716Z,0.70
2024-02-24T09:37:13.522Z,0.60
2024-02-24T09:39:44.041Z,0.43
2024-02-24T09:42:12.144Z,0.40
2024-02-24T09:44:40.241Z,0.73
2024-02-24T09:47:08.098Z,1.95
2024-02-24T09:49:35.230Z,0.52
2024-02-24T09:52:02.367Z,1.85
2024-02-24T09:54:30.247Z,0.65
2024-02-24T09:56:57.539Z,0.88
2024-02-24T09:59:25.967Z,5.13
2024-02-24T10:01:53.076Z,0.55
2024-02-24T10:04:24.041Z,1.27
2024-02-24T10:06:50.784Z,0.95
2024-02-24T10:09:17.941Z,0.43
2024-02-24T10:11:45.295Z,0.28
2024-02-24T10:14:12.153Z,0.40
2024-02-24T10:16:39.400Z,0.63
2024-02-24T10:19:07.388Z,0.28
2024-02-24T10:21:35.096Z,0.55
2024-02-24T10:24:03.770Z,0.40
2024-02-24T10:26:31.207Z,0.28
2024-02-24T10:28:58.499Z,0.60
2024-02-24T10:31:28.113Z,0.75
2024-02-24T10:36:23.945Z,0.28
2024-02-24T10:38:55.625Z,0.40
2024-02-24T10:41:26.736Z,0.30
2024-02-24T10:44:06.481Z,1.45
2024-02-24T10:46:42.564Z,0.13
2024-02-24T10:49:13.422Z,0.25
2024-02-24T10:51:42.836Z,0.20
2024-02-24T10:54:16.197Z,0.32
2024-02-24T10:56:44.269Z,1.10
2024-02-24T10:59:12.474Z,0.75
2024-02-24T11:01:48.862Z,0.30
2024-02-24T11:04:17.640Z,1.80
2024-02-24T11:06:56.330Z,0.30
2024-02-24T11:09:27.257Z,2.20
2024-02-24T11:12:09.303Z,1.17
2024-02-24T11:14:41.712Z,0.20
2024-02-24T11:17:10.814Z,0.28
2024-02-24T11:19:44.908Z,0.20
2024-02-24T11:22:19.704Z,0.20
2024-02-24T11:24:47.065Z,0.60
2024-02-24T11:27:14.280Z,0.43
2024-02-24T11:29:41.201Z,2.97
2024-02-24T11:32:14.632Z,0.40
2024-02-24T11:34:46.741Z,0.10
2024-02-24T11:37:21.132Z,0.30
2024-02-24T11:39:49.169Z,2.13
2024-02-24T11:42:16.277Z,0.63
2024-02-24T11:44:47.155Z,0.35
2024-02-24T11:47:18.544Z,0.50
2024-02-24T11:49:49.345Z,0.98
2024-02-24T11:52:16.907Z,0.30
2024-02-24T11:54:44.947Z,0.60
2024-02-24T11:57:12.969Z,0.38
2024-02-24T11:59:41.236Z,0.22
2024-02-24T12:02:08.052Z,0.17
2024-02-24T12:04:35.134Z,0.35
2024-02-24T12:07:05.614Z,1.45
2024-02-24T12:09:32.965Z,0.65
2024-02-24T12:12:00.039Z,0.30
2024-02-24T12:17:27.587Z,0.35
2024-02-24T12:19:56.796Z,1.02
2024-02-24T12:22:24.042Z,0.28
2024-02-24T12:24:53.369Z,0.60
2024-02-24T12:27:22.686Z,0.57
2024-02-24T12:29:51.553Z,3.75
2024-02-24T12:32:18.694Z,0.47
2024-02-24T12:44:36.818Z,0.32
2024-02-24T12:47:03.688Z,0.43
2024-02-24T12:49:30.464Z,0.68
2024-02-24T12:51:57.396Z,2.78
2024-02-24T12:54:24.171Z,0.28
2024-02-24T12:56:51.143Z,0.30
2024-02-24T12:59:19.819Z,0.20
2024-02-24T13:01:46.897Z,0.40
2024-02-24T13:04:13.813Z,0.50
2024-02-24T13:06:40.927Z,0.32
2024-02-24T13:09:07.889Z,0.40
2024-02-24T13:11:34.779Z,0.90
2024-02-24T13:14:01.567Z,1.52
2024-02-24T13:16:28.313Z,0.10
2024-02-24T13:18:55.136Z,0.28
2024-02-24T13:21:22.000Z,0.25
2024-02-24T13:23:48.802Z,0.45
2024-02-24T13:26:15.613Z,0.65
2024-02-24T13:28:42.344Z,0.20
2024-02-24T13:31:09.125Z,0.47
2024-02-24T13:33:36.256Z,0.30
2024-02-24T13:36:03.313Z,0.10
2024-02-24T13:38:30.644Z,1.17
2024-02-24T13:40:57.441Z,0.85
2024-02-24T13:43:24.314Z,0.47
2024-02-24T13:45:51.644Z,0.20
2024-02-24T13:48:18.622Z,0.32
2024-02-24T13:50:45.525Z,0.40
2024-02-24T13:53:12.876Z,0.20
2024-02-24T13:55:39.735Z,0.20
2024-02-24T13:58:06.833Z,0.85
2024-02-24T14:00:33.662Z,0.22
2024-02-24T14:03:02.798Z,0.32
2024-02-24T14:05:34.457Z,0.28
2024-02-24T14:08:05.468Z,0.20
2024-02-24T14:10:34.459Z,0.82
2024-02-24T14:13:01.293Z,0.40
2024-02-24T14:15:28.042Z,0.20
2024-02-24T14:17:55.613Z,1.45
2024-02-24T14:20:28.276Z,0.15
2024-02-24T14:22:55.636Z,0.68
2024-02-24T14:25:22.385Z,0.30
2024-02-24T14:27:49.145Z,1.55
2024-02-24T14:30:16.066Z,0.82
2024-02-24T14:32:42.883Z,0.28
2024-02-24T14:35:13.957Z,0.20
2024-02-24T14:37:41.438Z,0.20
2024-02-24T14:40:09.271Z,0.47
2024-02-24T14:42:36.038Z,0.40
2024-02-24T14:45:03.174Z,0.32
2024-02-24T14:47:31.049Z,0.35
2024-02-24T14:49:58.759Z,1.08
2024-02-24T14:52:25.834Z,0.22
2024-02-24T14:54:53.189Z,0.30
2024-02-24T14:57:20.113Z,0.30
2024-02-24T14:59:47.149Z,1.05
2024-02-24T15:02:22.425Z,0.75
2024-02-24T15:04:57.256Z,0.45
2024-02-24T15:07:24.039Z,0.60
2024-02-24T15:09:52.261Z,0.75
2024-02-24T15:12:19.122Z,0.30
2024-02-24T15:14:45.994Z,0.30
2024-02-24T15:17:12.893Z,0.93
2024-02-24T15:19:41.781Z,0.45
2024-02-24T15:22:08.849Z,0.55
2024-02-24T15:24:35.586Z,1.13
2024-02-24T15:27:02.471Z,0.70
2024-02-24T15:29:29.237Z,0.85
2024-02-24T15:31:56.096Z,1.08
2024-02-24T15:34:24.931Z,2.33
2024-02-24T15:36:51.923Z,1.10
2024-02-24T15:39:18.662Z,1.40
2024-02-24T15:41:48.552Z,0.90
2024-02-24T15:44:15.587Z,1.17
2024-02-24T15:46:47.470Z,0.45
2024-02-24T15:49:14.877Z,0.45
2024-02-24T15:51:41.754Z,0.50
2024-02-24T15:54:08.576Z,0.22
2024-02-24T15:56:35.576Z,0.25
2024-02-24T15:59:02.506Z,0.95
2024-02-24T16:01:29.351Z,0.75
2024-02-24T16:03:56.283Z,0.20
2024-02-24T16:06:25.206Z,0.30
2024-02-24T16:08:55.176Z,0.85
2024-02-24T16:11:22.152Z,0.20
2024-02-24T16:13:49.374Z,1.00
2024-02-24T16:16:20.432Z,0.35
2024-02-24T16:18:47.403Z,1.45
2024-02-24T16:21:14.296Z,1.08
2024-02-24T16:23:41.071Z,0.45
2024-02-24T16:26:07.825Z,0.50
2024-02-24T16:28:34.667Z,0.40
2024-02-24T16:31:01.493Z,0.60
2024-02-24T16:33:28.565Z,0.40
2024-02-24T16:35:55.650Z,1.35
2024-02-24T16:38:22.617Z,2.05
2024-02-24T16:40:49.378Z,0.45
2024-02-24T16:43:16.126Z,0.57
2024-02-24T16:45:43.301Z,0.55
2024-02-24T16:48:10.724Z,0.50
2024-02-24T16:50:37.665Z,1.75
2024-02-24T16:53:04.745Z,0.70
2024-02-24T16:55:31.558Z,0.55
2024-02-24T16:57:58.570Z,0.32
2024-02-24T17:00:26.165Z,1.98
2024-02-24T17:02:53.759Z,1.33
2024-02-24T17:05:21.816Z,2.85
2024-02-24T17:07:48.695Z,2.00
2024-02-24T17:10:16.241Z,1.15
2024-02-24T17:12:43.192Z,1.08
2024-02-24T17:15:11.536Z,2.45
2024-02-24T17:17:38.867Z,0.28
2024-02-24T17:20:06.784Z,0.95
2024-02-24T17:22:34.020Z,0.88
2024-02-24T17:25:00.895Z,2.30
2024-02-24T17:27:27.653Z,1.88
2024-02-24T17:29:54.474Z,0.88
2024-02-24T17:32:21.377Z,1.92
2024-02-24T17:34:48.425Z,0.90
2024-02-24T17:37:15.299Z,1.80
2024-02-24T17:39:42.040Z,6.57
2024-02-24T17:42:08.934Z,8.68
2024-02-24T17:44:35.836Z,2.00
2024-02-24T17:47:02.824Z,2.08
2024-02-24T17:49:29.890Z,2.58
2024-02-24T17:51:58.823Z,1.75
2024-02-24T17:54:25.618Z,1.67
2024-02-24T17:56:52.416Z,0.80
2024-02-24T17:59:19.356Z,1.40
2024-02-24T18:01:49.446Z,1.08
2024-02-24T18:04:16.761Z,2.38
2024-02-24T18:06:43.765Z,2.90
2024-02-24T18:09:10.699Z,3.92
2024-02-24T18:11:37.512Z,4.30
2024-02-24T18:14:04.316Z,2.22
2024-02-24T18:16:31.168Z,1.73
2024-02-24T18:18:58.026Z,1.77
2024-02-24T18:21:24.865Z,1.23
2024-02-24T18:23:51.688Z,0.60
2024-02-24T18:26:18.590Z,1.98
2024-02-24T18:28:45.490Z,2.63
2024-02-24T18:31:12.333Z,1.40
2024-02-24T18:33:39.285Z,3.03
2024-02-24T18:36:07.503Z,1.77
2024-02-24T18:38:34.333Z,3.67
2024-02-24T18:41:01.139Z,5.68
2024-02-24T18:43:27.930Z,6.05
2024-02-24T18:45:54.672Z,3.53
2024-02-24T18:48:21.545Z,3.58
2024-02-24T18:50:48.556Z,4.88
2024-02-24T18:53:15.484Z,1.65
2024-02-24T18:55:42.395Z,2.30
2024-02-24T18:58:09.226Z,3.97
2024-02-24T19:00:36.662Z,2.47
2024-02-24T19:03:04.400Z,1.88
2024-02-24T19:05:32.037Z,3.17
2024-02-24T19:07:59.032Z,3.13
2024-02-24T19:10:25.769Z,2.35
2024-02-24T19:12:52.977Z,2.13
2024-02-24T19:15:20.022Z,4.18
2024-02-24T19:17:47.098Z,3.47
2024-02-24T19:20:14.076Z,2.20
2024-02-24T19:22:40.839Z,1.55
2024-02-24T19:25:08.438Z,1.92
2024-02-24T19:27:35.208Z,3.45
2024-02-24T19:30:04.795Z,1.65
2024-02-24T19:34:58.605Z,2.20
2024-02-24T19:37:25.411Z,2.25
2024-02-24T19:39:55.003Z,2.42
2024-02-24T19:44:48.738Z,1.13
2024-02-24T19:47:15.511Z,1.00
2024-02-24T19:49:42.445Z,2.22
2024-02-24T19:52:09.274Z,3.13
2024-02-24T19:54:36.077Z,2.88
2024-02-24T19:57:03.034Z,3.88
2024-02-24T19:59:30.044Z,2.88
2024-02-24T20:01:57.205Z,6.00
2024-02-24T20:04:24.544Z,8.57
2024-02-24T20:06:51.361Z,9.10
2024-02-24T20:09:18.147Z,6.60
2024-02-24T20:11:45.088Z,4.95
2024-02-24T20:14:11.887Z,2.88
2024-02-24T20:16:39.270Z,4.18
2024-02-24T20:19:06.976Z,3.80
2024-02-24T20:21:34.061Z,3.60
2024-02-24T20:24:01.260Z,4.18
2024-02-24T20:26:28.453Z,1.75
2024-02-24T20:28:55.906Z,3.53
2024-02-24T20:31:23.004Z,3.47
2024-02-24T20:33:53.968Z,4.68
2024-02-24T20:36:27.696Z,5.00
2024-02-24T20:38:55.029Z,4.78
2024-02-24T20:41:23.270Z,2.38
2024-02-24T20:43:52.133Z,0.82
2024-02-24T20:46:21.395Z,1.90
2024-02-24T20:48:48.491Z,1.40
2024-02-24T20:51:15.388Z,1.15
2024-02-24T20:53:42.148Z,0.55
2024-02-24T20:56:08.892Z,0.45
2024-02-24T20:58:37.370Z,0.88
2024-02-24T21:01:04.403Z,0.40
2024-02-24T21:03:31.243Z,1.70
2024-02-24T21:05:58.908Z,0.60
2024-02-24T21:08:25.869Z,1.75
2024-02-24T21:10:53.172Z,2.70
2024-02-24T21:13:19.947Z,1.10
2024-02-24T21:15:46.690Z,2.83
2024-02-24T21:18:13.651Z,0.70
2024-02-24T21:20:40.594Z,2.50
2024-02-24T21:23:07.419Z,3.80
2024-02-24T21:25:34.204Z,1.70
2024-02-24T21:28:06.982Z,1.33
2024-02-24T21:30:34.466Z,1.42
2024-02-24T21:33:01.745Z,1.20
2024-02-24T21:35:31.616Z,1.80
2024-02-24T21:37:58.624Z,0.70
2024-02-24T21:40:26.522Z,1.33
2024-02-24T21:42:53.318Z,2.58
2024-02-24T21:45:22.520Z,2.08
2024-02-24T21:47:49.646Z,2.42
2024-02-24T21:50:16.447Z,1.38
2024-02-24T21:52:43.125Z,0.90
2024-02-24T21:55:09.943Z,0.68
2024-02-24T21:57:37.019Z,1.45
2024-02-24T22:00:04.171Z,0.93
2024-02-24T22:02:34.347Z,0.52
2024-02-24T22:05:01.313Z,1.98
2024-02-24T22:07:28.028Z,0.80
2024-02-24T22:09:54.780Z,0.80
2024-02-24T22:12:21.586Z,1.23
2024-02-24T22:14:48.639Z,1.27
2024-02-24T22:17:15.509Z,1.35
2024-02-24T22:19:42.342Z,1.23
2024-02-24T22:22:09.180Z,2.42
2024-02-24T22:24:36.039Z,1.50
2024-02-24T22:27:03.144Z,1.17
2024-02-24T22:29:30.072Z,4.95
2024-02-24T22:31:57.037Z,5.47
2024-02-24T22:34:23.997Z,2.17
2024-02-24T22:36:52.674Z,4.38
2024-02-24T22:39:19.543Z,1.27
2024-02-24T22:41:47.531Z,2.55
2024-02-24T22:44:14.766Z,5.15
2024-02-24T22:46:41.665Z,4.07
2024-02-24T22:49:08.659Z,6.50
2024-02-24T22:51:35.538Z,3.40
2024-02-24T22:54:02.611Z,3.83
2024-02-24T22:56:30.914Z,2.78
2024-02-24T22:59:01.406Z,1.63
2024-02-24T23:01:29.027Z,2.10
2024-02-24T23:03:56.503Z,2.95
2024-02-24T23:06:23.514Z,1.30
2024-02-24T23:08:50.348Z,2.25
2024-02-24T23:11:25.837Z,3.47
2024-02-24T23:14:00.673Z,1.17
2024-02-24T23:16:29.844Z,2.22
2024-02-24T23:19:00.461Z,1.10
2024-02-24T23:21:31.277Z,1.23
2024-02-24T23:23:58.677Z,1.17
2024-02-24T23:26:26.060Z,0.98
2024-02-24T23:28:53.231Z,1.17
2024-02-24T23:31:20.107Z,1.08
2024-02-24T23:33:47.005Z,1.20
2024-02-24T23:36:14.200Z,10.77
2024-02-24T23:38:41.247Z,18.52
2024-02-24T23:41:08.043Z,10.43
2024-02-24T23:43:34.846Z,3.72
2024-02-24T23:46:01.636Z,4.00
2024-02-24T23:48:28.743Z,5.90
2024-02-24T23:50:55.660Z,1.80
2024-02-24T23:53:22.541Z,1.42
2024-02-24T23:55:50.123Z,1.45
2024-02-24T23:58:16.903Z,2.55
